Terminal Aerodrome Forecast
Issued by NWS Glasgow, MT

Home | Current Version | Previous Version | Text Only | Print | Product List | Glossary On
Versions: 1 2 3 4 5 6 7 8 9 10 11 12 13
000
FTUS45 KGGW 041734
TAFGGW
TAF
KGGW 041734Z 0418/0518 04015G25KT P6SM SCT025 BKN050
     FM050400 05011KT P6SM -SHRA OVC040 PROB30 0507/0510 P6SM -TSRA
      BKN030CB
     FM051200 06011KT P6SM -SHRA OVC007=

USA.gov is the U.S. government's official web portal to all federal, state and local government web resources and services.